Harbour Bridge — 3EIQ5 — position and weather

sailwx.info

Track history (hours):
 
Tides and Currents Weather Stations Pressure Air Temp Water Temp Dewpoint Dewpoint Depression Visibility Wind Speed Wind Dir Waves Ship Positions

Harbour Bridge

Last reported at 2018-Jun-18 08:55 UTC. Time now 2018-Jun-19 00:58 UTC.
Position N 09°34' W 079°49'.

Length 336 m; draft 13.1 m.

Type: Ship (hazmat cat A). MMSI: 372367000.

Date/timePositionNaut miles runAvg speedWind from/ knotsBaromVisibWave heightAir tempDewpointWater temp
2018-Jun-18 08:55N 09°34' W 079°49'717.0
2018-Jun-18 08:29N 09°28' W 079°53'510.8
2018-Jun-18 08:00N 09°23' W 079°54'1 1.8
2018-Jun-18 07:28N 09°22' W 079°53'0 0.0
2018-Jun-18 06:58N 09°22' W 079°53'0 0.0
2018-Jun-18 06:28N 09°22' W 079°53'0 0.0
2018-Jun-18 05:58N 09°22' W 079°53'0 0.0
2018-Jun-18 05:28N 09°22' W 079°53'0 0.0
2018-Jun-18 04:58N 09°22' W 079°53'0 0.0
2018-Jun-18 04:28N 09°22' W 079°53'0 0.0
2018-Jun-18 03:58N 09°22' W 079°53'0 0.0
2018-Jun-18 03:28N 09°22' W 079°53'0 0.0
2018-Jun-18 02:58N 09°22' W 079°53'0 0.0
2018-Jun-18 02:28N 09°22' W 079°53'0 0.0
2018-Jun-18 01:58N 09°22' W 079°53'0 0.0
2018-Jun-18 01:28N 09°22' W 079°53'0 0.0
2018-Jun-18 00:58N 09°22' W 079°53'0 0.0
2018-Jun-18 00:25N 09°22' W 079°53'0 0.0
2018-Jun-17 23:58N 09°22' W 079°53'0 0.0
2018-Jun-17 23:28N 09°22' W 079°53'0 0.0
2018-Jun-17 22:58N 09°22' W 079°53'0 0.0
2018-Jun-17 22:28N 09°22' W 079°53'0 0.0
2018-Jun-17 21:58N 09°22' W 079°53'0 0.0
2018-Jun-17 21:28N 09°22' W 079°53'0 0.0
2018-Jun-17 20:58N 09°22' W 079°53'0 0.0
2018-Jun-17 20:28N 09°22' W 079°53'0 0.0
2018-Jun-17 19:58N 09°22' W 079°53'0 0.0
2018-Jun-17 19:30N 09°22' W 079°53'0 0.8
2018-Jun-17 19:00N 09°22' W 079°53'2 4.8
2018-Jun-17 18:30N 09°24' W 079°54'4 7.9
2018-Jun-17 18:00N 09°28' W 079°51'1 0.3
2018-Jun-17 14:48N 09°28' W 079°51'0 0.1
2018-Jun-17 14:30N 09°28' W 079°51'0 0.0
2018-Jun-17 13:48N 09°28' W 079°51'0 0.1
2018-Jun-17 13:12N 09°28' W 079°51'0 0.0
2018-Jun-17 13:00N 09°28' W 079°51'0 0.0
2018-Jun-17 12:30N 09°28' W 079°51'0 0.1
2018-Jun-17 11:51N 09°28' W 079°51'0 0.0
2018-Jun-17 11:30N 09°28' W 079°51'0 0.0
2018-Jun-17 10:24N 09°28' W 079°50'0 0.0
2018-Jun-17 09:36N 09°28' W 079°50'0 0.1
2018-Jun-17 09:30N 09°28' W 079°50'0 0.0
2018-Jun-17 08:27N 09°28' W 079°50'0 0.0
2018-Jun-17 06:57N 09°28' W 079°50'0 0.1
2018-Jun-17 05:45N 09°28' W 079°51'0 0.1
2018-Jun-17 05:30N 09°28' W 079°51'0 0.0
2018-Jun-17 05:00N 09°28' W 079°51'0 0.1
2018-Jun-17 04:30N 09°28' W 079°51'0 0.1
2018-Jun-17 03:57N 09°28' W 079°51'0 0.0
2018-Jun-17 03:30N 09°28' W 079°51'0 0.0
2018-Jun-17 02:54N 09°28' W 079°51'0 0.0
2018-Jun-17 02:30N 09°28' W 079°51'0 0.0
2018-Jun-17 01:57N 09°28' W 079°51'0 0.0
2018-Jun-17 01:30N 09°28' W 079°51'0 0.0
2018-Jun-17 00:27N 09°28' W 079°51'0 0.1
2018-Jun-16 23:45N 09°28' W 079°51'0 0.1
2018-Jun-16 23:30N 09°28' W 079°51'0 0.1
2018-Jun-16 23:00N 09°28' W 079°51'0 0.2
2018-Jun-16 22:30N 09°28' W 079°51'0 0.2
2018-Jun-16 22:00N 09°28' W 079°51'2 3.1
2018-Jun-16 21:30N 09°28' W 079°52'4 7.9
2018-Jun-16 21:00N 09°25' W 079°55'510.3
2018-Jun-16 20:30N 09°20' W 079°55'3 6.0
2018-Jun-16 20:00N 09°17' W 079°55'0 0.9
2018-Jun-16 19:30N 09°16' W 079°55'0 0.1
2018-Jun-16 19:00N 09°16' W 079°55'0 0.4
2018-Jun-16 18:30N 09°16' W 079°55'0 0.3
2018-Jun-16 17:59N 09°16' W 079°55'0 0.2
2018-Jun-16 17:30N 09°16' W 079°55'0 0.4
2018-Jun-16 17:00N 09°16' W 079°55'0 0.5
2018-Jun-16 16:30N 09°16' W 079°55'0 0.3
2018-Jun-16 16:00N 09°15' W 079°55'0 0.8
2018-Jun-16 15:30N 09°15' W 079°55'1 1.9
2018-Jun-16 14:58N 09°14' W 079°55'2 3.2
2018-Jun-16 14:29N 09°13' W 079°55'  
Track history (hours):
 
Tides and Currents Weather Stations Pressure Air Temp Water Temp Dewpoint Dewpoint Depression Visibility Wind Speed Wind Dir Waves Ship Positions

Harbour Bridge

Last reported at 2018-Jun-18 08:55 UTC. Time now 2018-Jun-19 00:58 UTC.
Position N 09°34' W 079°49'.

Length 336 m; draft 13.1 m.

Type: Ship (hazmat cat A). MMSI: 372367000.

Date/timePositionNaut miles runAvg speedWind from/ knotsBaromVisibWave heightAir tempDewpointWater temp
2018-Jun-18 08:55N 09°34' W 079°49'717.0
2018-Jun-18 08:29N 09°28' W 079°53'510.8
2018-Jun-18 08:00N 09°23' W 079°54'1 1.8
2018-Jun-18 07:28N 09°22' W 079°53'0 0.0
2018-Jun-18 06:58N 09°22' W 079°53'0 0.0
2018-Jun-18 06:28N 09°22' W 079°53'0 0.0
2018-Jun-18 05:58N 09°22' W 079°53'0 0.0
2018-Jun-18 05:28N 09°22' W 079°53'0 0.0
2018-Jun-18 04:58N 09°22' W 079°53'0 0.0
2018-Jun-18 04:28N 09°22' W 079°53'0 0.0
2018-Jun-18 03:58N 09°22' W 079°53'0 0.0
2018-Jun-18 03:28N 09°22' W 079°53'0 0.0
2018-Jun-18 02:58N 09°22' W 079°53'0 0.0
2018-Jun-18 02:28N 09°22' W 079°53'0 0.0
2018-Jun-18 01:58N 09°22' W 079°53'0 0.0
2018-Jun-18 01:28N 09°22' W 079°53'0 0.0
2018-Jun-18 00:58N 09°22' W 079°53'0 0.0
2018-Jun-18 00:25N 09°22' W 079°53'0 0.0
2018-Jun-17 23:58N 09°22' W 079°53'0 0.0
2018-Jun-17 23:28N 09°22' W 079°53'0 0.0
2018-Jun-17 22:58N 09°22' W 079°53'0 0.0
2018-Jun-17 22:28N 09°22' W 079°53'0 0.0
2018-Jun-17 21:58N 09°22' W 079°53'0 0.0
2018-Jun-17 21:28N 09°22' W 079°53'0 0.0
2018-Jun-17 20:58N 09°22' W 079°53'0 0.0
2018-Jun-17 20:28N 09°22' W 079°53'0 0.0
2018-Jun-17 19:58N 09°22' W 079°53'0 0.0
2018-Jun-17 19:30N 09°22' W 079°53'0 0.8
2018-Jun-17 19:00N 09°22' W 079°53'2 4.8
2018-Jun-17 18:30N 09°24' W 079°54'4 7.9
2018-Jun-17 18:00N 09°28' W 079°51'1 0.3
2018-Jun-17 14:48N 09°28' W 079°51'0 0.1
2018-Jun-17 14:30N 09°28' W 079°51'0 0.0
2018-Jun-17 13:48N 09°28' W 079°51'0 0.1
2018-Jun-17 13:12N 09°28' W 079°51'0 0.0
2018-Jun-17 13:00N 09°28' W 079°51'0 0.0
2018-Jun-17 12:30N 09°28' W 079°51'0 0.1
2018-Jun-17 11:51N 09°28' W 079°51'0 0.0
2018-Jun-17 11:30N 09°28' W 079°51'0 0.0
2018-Jun-17 10:24N 09°28' W 079°50'0 0.0
2018-Jun-17 09:36N 09°28' W 079°50'0 0.1
2018-Jun-17 09:30N 09°28' W 079°50'0 0.0
2018-Jun-17 08:27N 09°28' W 079°50'0 0.0
2018-Jun-17 06:57N 09°28' W 079°50'0 0.1
2018-Jun-17 05:45N 09°28' W 079°51'0 0.1
2018-Jun-17 05:30N 09°28' W 079°51'0 0.0
2018-Jun-17 05:00N 09°28' W 079°51'0 0.1
2018-Jun-17 04:30N 09°28' W 079°51'0 0.1
2018-Jun-17 03:57N 09°28' W 079°51'0 0.0
2018-Jun-17 03:30N 09°28' W 079°51'0 0.0
2018-Jun-17 02:54N 09°28' W 079°51'0 0.0
2018-Jun-17 02:30N 09°28' W 079°51'0 0.0
2018-Jun-17 01:57N 09°28' W 079°51'0 0.0
2018-Jun-17 01:30N 09°28' W 079°51'0 0.0
2018-Jun-17 00:27N 09°28' W 079°51'0 0.1
2018-Jun-16 23:45N 09°28' W 079°51'0 0.1
2018-Jun-16 23:30N 09°28' W 079°51'0 0.1
2018-Jun-16 23:00N 09°28' W 079°51'0 0.2
2018-Jun-16 22:30N 09°28' W 079°51'0 0.2
2018-Jun-16 22:00N 09°28' W 079°51'2 3.1
2018-Jun-16 21:30N 09°28' W 079°52'4 7.9
2018-Jun-16 21:00N 09°25' W 079°55'510.3
2018-Jun-16 20:30N 09°20' W 079°55'3 6.0
2018-Jun-16 20:00N 09°17' W 079°55'0 0.9
2018-Jun-16 19:30N 09°16' W 079°55'0 0.1
2018-Jun-16 19:00N 09°16' W 079°55'0 0.4
2018-Jun-16 18:30N 09°16' W 079°55'0 0.3
2018-Jun-16 17:59N 09°16' W 079°55'0 0.2
2018-Jun-16 17:30N 09°16' W 079°55'0 0.4
2018-Jun-16 17:00N 09°16' W 079°55'0 0.5
2018-Jun-16 16:30N 09°16' W 079°55'0 0.3
2018-Jun-16 16:00N 09°15' W 079°55'0 0.8
2018-Jun-16 15:30N 09°15' W 079°55'1 1.9
2018-Jun-16 14:58N 09°14' W 079°55'2 3.2
2018-Jun-16 14:29N 09°13' W 079°55'  

Dump ship's entire track history